Terminal Aerodrome Forecast
Issued by NWS

Home | Current Version | Previous Version | Text Only | Print | Product List | Glossary On
Versions: 1 2 3 4 5 6 7 8 9 10 11 12 13 14 15 16 17 18 19 20 21 22 23 24 25 26 27 28 29 30 31 32 33 34 35 36 37 38 39 40 41 42
000
FTUS43 KGLD 220802 AAA
TAFMCK
TAF AMD
KMCK 220802Z 2208/2306 15008KT P6SM BKN050 WS020/14035KT
     FM221100 13011KT 2SM -SHRA BR OVC035
     FM221200 13012G22KT 2SM -RA BR OVC005
     FM222200 14018G28KT 3SM -SHRA BR OVC008=

USA.gov is the U.S. government's official web portal to all federal, state and local government web resources and services.